sensor_id;sensor_type;location;lat;lon;timestamp;P1;durP1;ratioP1;P2;durP2;ratioP2
61413;SDS011;47279;52.426;10.488;2023-09-30T00:00:54;1.60;;;1.50;;
61413;SDS011;47279;52.426;10.488;2023-09-30T00:03:21;2.03;;;1.50;;
61413;SDS011;47279;52.426;10.488;2023-09-30T00:05:47;1.80;;;1.60;;
61413;SDS011;47279;52.426;10.488;2023-09-30T00:08:13;1.90;;;1.48;;
61413;SDS011;47279;52.426;10.488;2023-09-30T00:10:39;1.65;;;1.55;;
61413;SDS011;47279;52.426;10.488;2023-09-30T00:13:05;1.92;;;1.60;;
61413;SDS011;47279;52.426;10.488;2023-09-30T00:15:32;1.75;;;1.50;;
61413;SDS011;47279;52.426;10.488;2023-09-30T00:17:58;1.63;;;1.52;;
61413;SDS011;47279;52.426;10.488;2023-09-30T00:20:24;2.08;;;1.60;;
61413;SDS011;47279;52.426;10.488;2023-09-30T00:22:50;1.70;;;1.60;;
61413;SDS011;47279;52.426;10.488;2023-09-30T00:25:15;2.80;;;1.58;;
61413;SDS011;47279;52.426;10.488;2023-09-30T00:27:41;2.22;;;1.50;;
61413;SDS011;47279;52.426;10.488;2023-09-30T00:30:08;1.92;;;1.60;;
61413;SDS011;47279;52.426;10.488;2023-09-30T00:32:34;2.00;;;1.60;;
61413;SDS011;47279;52.426;10.488;2023-09-30T00:35:03;2.28;;;1.60;;
61413;SDS011;47279;52.426;10.488;2023-09-30T00:37:29;1.83;;;1.50;;
61413;SDS011;47279;52.426;10.488;2023-09-30T00:39:55;1.77;;;1.50;;
61413;SDS011;47279;52.426;10.488;2023-09-30T00:42:21;2.05;;;1.60;;
61413;SDS011;47279;52.426;10.488;2023-09-30T00:44:47;3.60;;;1.63;;
61413;SDS011;47279;52.426;10.488;2023-09-30T00:47:13;3.03;;;1.77;;
61413;SDS011;47279;52.426;10.488;2023-09-30T00:49:40;1.80;;;1.50;;
61413;SDS011;47279;52.426;10.488;2023-09-30T00:52:07;2.20;;;1.42;;
61413;SDS011;47279;52.426;10.488;2023-09-30T00:54:33;1.65;;;1.50;;
61413;SDS011;47279;52.426;10.488;2023-09-30T00:57:00;1.92;;;1.58;;
61413;SDS011;47279;52.426;10.488;2023-09-30T00:59:26;1.92;;;1.73;;
61413;SDS011;47279;52.426;10.488;2023-09-30T01:01:54;1.80;;;1.58;;
61413;SDS011;47279;52.426;10.488;2023-09-30T01:04:22;2.45;;;1.65;;
61413;SDS011;47279;52.426;10.488;2023-09-30T01:06:49;1.70;;;1.58;;
61413;SDS011;47279;52.426;10.488;2023-09-30T01:09:15;1.95;;;1.50;;
61413;SDS011;47279;52.426;10.488;2023-09-30T01:11:41;1.67;;;1.45;;
61413;SDS011;47279;52.426;10.488;2023-09-30T01:14:29;2.08;;;1.60;;
61413;SDS011;47279;52.426;10.488;2023-09-30T01:16:53;1.73;;;1.52;;
61413;SDS011;47279;52.426;10.488;2023-09-30T01:19:20;1.90;;;1.60;;
61413;SDS011;47279;52.426;10.488;2023-09-30T01:21:46;2.28;;;1.50;;
61413;SDS011;47279;52.426;10.488;2023-09-30T01:24:15;2.35;;;1.60;;
61413;SDS011;47279;52.426;10.488;2023-09-30T01:26:41;1.58;;;1.38;;
61413;SDS011;47279;52.426;10.488;2023-09-30T01:29:07;2.03;;;1.58;;
61413;SDS011;47279;52.426;10.488;2023-09-30T01:31:37;2.33;;;1.63;;
61413;SDS011;47279;52.426;10.488;2023-09-30T01:34:03;2.22;;;1.40;;
61413;SDS011;47279;52.426;10.488;2023-09-30T01:36:29;2.13;;;1.92;;
61413;SDS011;47279;52.426;10.488;2023-09-30T01:38:55;1.70;;;1.52;;
61413;SDS011;47279;52.426;10.488;2023-09-30T01:41:21;1.90;;;1.52;;
61413;SDS011;47279;52.426;10.488;2023-09-30T01:43:48;2.75;;;1.80;;
61413;SDS011;47279;52.426;10.488;2023-09-30T01:46:14;2.15;;;1.58;;
61413;SDS011;47279;52.426;10.488;2023-09-30T01:48:40;2.83;;;1.73;;
61413;SDS011;47279;52.426;10.488;2023-09-30T01:51:06;2.13;;;1.60;;
61413;SDS011;47279;52.426;10.488;2023-09-30T01:53:32;2.03;;;1.60;;
61413;SDS011;47279;52.426;10.488;2023-09-30T01:55:58;2.20;;;1.50;;
61413;SDS011;47279;52.426;10.488;2023-09-30T01:58:24;2.15;;;1.52;;
61413;SDS011;47279;52.426;10.488;2023-09-30T02:00:51;2.47;;;1.50;;
61413;SDS011;47279;52.426;10.488;2023-09-30T02:03:17;1.92;;;1.58;;
61413;SDS011;47279;52.426;10.488;2023-09-30T02:05:43;2.22;;;1.50;;
61413;SDS011;47279;52.426;10.488;2023-09-30T02:08:09;1.55;;;1.40;;
61413;SDS011;47279;52.426;10.488;2023-09-30T02:10:35;1.92;;;1.50;;
61413;SDS011;47279;52.426;10.488;2023-09-30T02:13:01;1.77;;;1.50;;
61413;SDS011;47279;52.426;10.488;2023-09-30T02:15:31;3.08;;;1.90;;
61413;SDS011;47279;52.426;10.488;2023-09-30T02:17:57;1.95;;;1.38;;
61413;SDS011;47279;52.426;10.488;2023-09-30T02:20:23;1.40;;;1.30;;
61413;SDS011;47279;52.426;10.488;2023-09-30T02:22:51;2.20;;;1.70;;
61413;SDS011;47279;52.426;10.488;2023-09-30T02:25:17;2.20;;;1.75;;
61413;SDS011;47279;52.426;10.488;2023-09-30T02:27:43;2.15;;;1.50;;
61413;SDS011;47279;52.426;10.488;2023-09-30T02:30:10;2.47;;;1.63;;
61413;SDS011;47279;52.426;10.488;2023-09-30T02:32:41;1.58;;;1.38;;
61413;SDS011;47279;52.426;10.488;2023-09-30T02:35:08;3.22;;;1.70;;
61413;SDS011;47279;52.426;10.488;2023-09-30T02:37:38;2.45;;;1.73;;
61413;SDS011;47279;52.426;10.488;2023-09-30T02:40:05;2.28;;;1.60;;
61413;SDS011;47279;52.426;10.488;2023-09-30T02:42:35;1.80;;;1.42;;
61413;SDS011;47279;52.426;10.488;2023-09-30T02:45:01;2.08;;;1.80;;
61413;SDS011;47279;52.426;10.488;2023-09-30T02:47:27;2.03;;;1.45;;
61413;SDS011;47279;52.426;10.488;2023-09-30T02:49:54;2.80;;;1.63;;
61413;SDS011;47279;52.426;10.488;2023-09-30T02:52:20;3.47;;;1.70;;
61413;SDS011;47279;52.426;10.488;2023-09-30T02:54:46;3.30;;;1.73;;
61413;SDS011;47279;52.426;10.488;2023-09-30T02:57:12;2.00;;;1.60;;
61413;SDS011;47279;52.426;10.488;2023-09-30T02:59:38;2.33;;;1.75;;
61413;SDS011;47279;52.426;10.488;2023-09-30T03:02:05;1.73;;;1.40;;
61413;SDS011;47279;52.426;10.488;2023-09-30T03:04:31;2.45;;;1.80;;
61413;SDS011;47279;52.426;10.488;2023-09-30T03:06:57;1.50;;;1.40;;
61413;SDS011;47279;52.426;10.488;2023-09-30T03:09:23;1.75;;;1.50;;
61413;SDS011;47279;52.426;10.488;2023-09-30T03:11:50;3.15;;;1.67;;
61413;SDS011;47279;52.426;10.488;2023-09-30T03:14:16;1.70;;;1.58;;
61413;SDS011;47279;52.426;10.488;2023-09-30T03:16:41;2.50;;;1.70;;
61413;SDS011;47279;52.426;10.488;2023-09-30T03:19:09;1.90;;;1.70;;
61413;SDS011;47279;52.426;10.488;2023-09-30T03:21:36;2.00;;;1.45;;
61413;SDS011;47279;52.426;10.488;2023-09-30T03:24:03;2.28;;;1.50;;
61413;SDS011;47279;52.426;10.488;2023-09-30T03:26:29;2.97;;;1.52;;
61413;SDS011;47279;52.426;10.488;2023-09-30T03:28:55;2.92;;;1.77;;
61413;SDS011;47279;52.426;10.488;2023-09-30T03:31:21;2.30;;;1.50;;
61413;SDS011;47279;52.426;10.488;2023-09-30T03:33:48;1.80;;;1.50;;
61413;SDS011;47279;52.426;10.488;2023-09-30T03:36:14;2.75;;;1.73;;
61413;SDS011;47279;52.426;10.488;2023-09-30T03:38:40;2.42;;;1.73;;
61413;SDS011;47279;52.426;10.488;2023-09-30T03:41:06;2.70;;;1.85;;
61413;SDS011;47279;52.426;10.488;2023-09-30T03:43:33;2.92;;;1.80;;
61413;SDS011;47279;52.426;10.488;2023-09-30T03:46:05;2.90;;;1.70;;
61413;SDS011;47279;52.426;10.488;2023-09-30T03:48:31;2.80;;;1.85;;
61413;SDS011;47279;52.426;10.488;2023-09-30T03:51:07;2.72;;;1.38;;
61413;SDS011;47279;52.426;10.488;2023-09-30T03:53:33;1.85;;;1.38;;
61413;SDS011;47279;52.426;10.488;2023-09-30T03:55:59;2.33;;;1.70;;
61413;SDS011;47279;52.426;10.488;2023-09-30T03:58:25;2.70;;;1.70;;
61413;SDS011;47279;52.426;10.488;2023-09-30T04:00:51;2.60;;;1.98;;
61413;SDS011;47279;52.426;10.488;2023-09-30T04:03:17;1.95;;;1.45;;
61413;SDS011;47279;52.426;10.488;2023-09-30T04:05:43;2.55;;;1.85;;
61413;SDS011;47279;52.426;10.488;2023-09-30T04:08:09;2.42;;;1.70;;
61413;SDS011;47279;52.426;10.488;2023-09-30T04:10:36;2.00;;;1.50;;
61413;SDS011;47279;52.426;10.488;2023-09-30T04:13:02;1.77;;;1.50;;
61413;SDS011;47279;52.426;10.488;2023-09-30T04:15:28;2.15;;;1.40;;
61413;SDS011;47279;52.426;10.488;2023-09-30T04:17:56;2.13;;;1.70;;
61413;SDS011;47279;52.426;10.488;2023-09-30T04:20:21;2.65;;;1.90;;
61413;SDS011;47279;52.426;10.488;2023-09-30T04:22:49;3.65;;;1.73;;
61413;SDS011;47279;52.426;10.488;2023-09-30T04:25:16;2.15;;;1.50;;
61413;SDS011;47279;52.426;10.488;2023-09-30T04:27:43;2.63;;;1.40;;
61413;SDS011;47279;52.426;10.488;2023-09-30T04:30:09;3.75;;;1.90;;
61413;SDS011;47279;52.426;10.488;2023-09-30T04:32:36;2.03;;;1.70;;
61413;SDS011;47279;52.426;10.488;2023-09-30T04:35:03;2.35;;;1.50;;
61413;SDS011;47279;52.426;10.488;2023-09-30T04:37:29;1.95;;;1.55;;
61413;SDS011;47279;52.426;10.488;2023-09-30T04:39:55;2.50;;;1.63;;
61413;SDS011;47279;52.426;10.488;2023-09-30T04:42:23;3.45;;;1.98;;
61413;SDS011;47279;52.426;10.488;2023-09-30T04:44:50;3.15;;;2.03;;
61413;SDS011;47279;52.426;10.488;2023-09-30T04:47:16;1.73;;;1.50;;
61413;SDS011;47279;52.426;10.488;2023-09-30T04:49:43;2.53;;;1.73;;
61413;SDS011;47279;52.426;10.488;2023-09-30T04:52:10;2.08;;;1.63;;
61413;SDS011;47279;52.426;10.488;2023-09-30T04:54:36;2.40;;;1.60;;
61413;SDS011;47279;52.426;10.488;2023-09-30T04:57:02;2.35;;;1.58;;
61413;SDS011;47279;52.426;10.488;2023-09-30T04:59:28;2.35;;;1.70;;
61413;SDS011;47279;52.426;10.488;2023-09-30T05:01:55;2.30;;;1.50;;
61413;SDS011;47279;52.426;10.488;2023-09-30T05:04:21;2.20;;;1.83;;
61413;SDS011;47279;52.426;10.488;2023-09-30T05:06:49;2.30;;;1.65;;
61413;SDS011;47279;52.426;10.488;2023-09-30T05:09:15;2.70;;;2.15;;
61413;SDS011;47279;52.426;10.488;2023-09-30T05:11:41;2.55;;;1.90;;
61413;SDS011;47279;52.426;10.488;2023-09-30T05:14:07;2.88;;;1.85;;
61413;SDS011;47279;52.426;10.488;2023-09-30T05:16:33;2.42;;;1.83;;
61413;SDS011;47279;52.426;10.488;2023-09-30T05:18:59;2.42;;;1.60;;
61413;SDS011;47279;52.426;10.488;2023-09-30T05:21:25;3.10;;;1.70;;
61413;SDS011;47279;52.426;10.488;2023-09-30T05:23:51;3.42;;;1.70;;
61413;SDS011;47279;52.426;10.488;2023-09-30T05:26:17;3.00;;;1.60;;
61413;SDS011;47279;52.426;10.488;2023-09-30T05:28:43;3.38;;;1.75;;
61413;SDS011;47279;52.426;10.488;2023-09-30T05:31:09;2.78;;;1.73;;
61413;SDS011;47279;52.426;10.488;2023-09-30T05:33:36;3.05;;;1.70;;
61413;SDS011;47279;52.426;10.488;2023-09-30T05:36:02;2.22;;;1.67;;
61413;SDS011;47279;52.426;10.488;2023-09-30T05:38:28;3.05;;;1.42;;
61413;SDS011;47279;52.426;10.488;2023-09-30T05:40:56;2.88;;;1.80;;
61413;SDS011;47279;52.426;10.488;2023-09-30T05:43:24;3.90;;;1.80;;
61413;SDS011;47279;52.426;10.488;2023-09-30T05:45:52;2.65;;;1.77;;
61413;SDS011;47279;52.426;10.488;2023-09-30T05:48:20;2.15;;;1.90;;
61413;SDS011;47279;52.426;10.488;2023-09-30T05:50:46;3.20;;;1.88;;
61413;SDS011;47279;52.426;10.488;2023-09-30T05:53:12;2.13;;;1.50;;
61413;SDS011;47279;52.426;10.488;2023-09-30T05:55:39;3.65;;;1.80;;
61413;SDS011;47279;52.426;10.488;2023-09-30T05:58:08;2.90;;;1.70;;
61413;SDS011;47279;52.426;10.488;2023-09-30T06:00:34;2.90;;;1.90;;
61413;SDS011;47279;52.426;10.488;2023-09-30T06:03:01;2.47;;;1.50;;
61413;SDS011;47279;52.426;10.488;2023-09-30T06:05:30;2.93;;;1.53;;
61413;SDS011;47279;52.426;10.488;2023-09-30T06:07:56;2.65;;;1.60;;
61413;SDS011;47279;52.426;10.488;2023-09-30T06:10:22;2.60;;;1.88;;
61413;SDS011;47279;52.426;10.488;2023-09-30T06:12:51;2.75;;;1.98;;
61413;SDS011;47279;52.426;10.488;2023-09-30T06:15:20;3.17;;;1.88;;
61413;SDS011;47279;52.426;10.488;2023-09-30T06:17:51;2.88;;;1.70;;
61413;SDS011;47279;52.426;10.488;2023-09-30T06:20:20;3.05;;;1.83;;
61413;SDS011;47279;52.426;10.488;2023-09-30T06:22:47;2.30;;;1.90;;
61413;SDS011;47279;52.426;10.488;2023-09-30T06:25:19;2.30;;;1.75;;
61413;SDS011;47279;52.426;10.488;2023-09-30T06:27:47;2.22;;;1.60;;
61413;SDS011;47279;52.426;10.488;2023-09-30T06:30:16;2.22;;;1.50;;
61413;SDS011;47279;52.426;10.488;2023-09-30T06:35:10;4.22;;;2.00;;
61413;SDS011;47279;52.426;10.488;2023-09-30T06:37:37;2.38;;;1.60;;
61413;SDS011;47279;52.426;10.488;2023-09-30T06:40:04;2.53;;;1.70;;
61413;SDS011;47279;52.426;10.488;2023-09-30T06:42:32;3.15;;;1.70;;
61413;SDS011;47279;52.426;10.488;2023-09-30T06:44:59;3.40;;;2.15;;
61413;SDS011;47279;52.426;10.488;2023-09-30T06:47:24;3.55;;;2.15;;
61413;SDS011;47279;52.426;10.488;2023-09-30T06:49:50;2.60;;;1.75;;
61413;SDS011;47279;52.426;10.488;2023-09-30T06:52:16;2.33;;;1.70;;
61413;SDS011;47279;52.426;10.488;2023-09-30T06:54:42;3.13;;;1.75;;
61413;SDS011;47279;52.426;10.488;2023-09-30T06:57:08;2.67;;;1.60;;
61413;SDS011;47279;52.426;10.488;2023-09-30T06:59:35;3.22;;;1.80;;
61413;SDS011;47279;52.426;10.488;2023-09-30T07:02:01;2.40;;;1.77;;
61413;SDS011;47279;52.426;10.488;2023-09-30T07:04:28;2.58;;;1.90;;
61413;SDS011;47279;52.426;10.488;2023-09-30T07:06:54;2.97;;;1.90;;
61413;SDS011;47279;52.426;10.488;2023-09-30T07:09:20;2.40;;;1.77;;
61413;SDS011;47279;52.426;10.488;2023-09-30T07:11:46;2.35;;;1.67;;
61413;SDS011;47279;52.426;10.488;2023-09-30T07:14:14;2.53;;;1.92;;
61413;SDS011;47279;52.426;10.488;2023-09-30T07:16:40;3.10;;;1.77;;
61413;SDS011;47279;52.426;10.488;2023-09-30T07:19:06;2.85;;;1.70;;
61413;SDS011;47279;52.426;10.488;2023-09-30T07:21:32;1.85;;;1.42;;
61413;SDS011;47279;52.426;10.488;2023-09-30T07:23:58;2.53;;;1.73;;
61413;SDS011;47279;52.426;10.488;2023-09-30T07:26:24;2.15;;;1.48;;
61413;SDS011;47279;52.426;10.488;2023-09-30T07:28:50;1.95;;;1.70;;
61413;SDS011;47279;52.426;10.488;2023-09-30T07:31:19;2.75;;;1.80;;
61413;SDS011;47279;52.426;10.488;2023-09-30T07:33:45;2.72;;;1.70;;
61413;SDS011;47279;52.426;10.488;2023-09-30T07:36:11;2.67;;;1.60;;
61413;SDS011;47279;52.426;10.488;2023-09-30T07:38:38;3.00;;;1.73;;
61413;SDS011;47279;52.426;10.488;2023-09-30T07:41:05;2.80;;;1.70;;
61413;SDS011;47279;52.426;10.488;2023-09-30T07:43:31;3.25;;;1.70;;
61413;SDS011;47279;52.426;10.488;2023-09-30T07:45:57;3.03;;;1.70;;
61413;SDS011;47279;52.426;10.488;2023-09-30T07:48:24;3.13;;;2.00;;
61413;SDS011;47279;52.426;10.488;2023-09-30T07:50:51;3.42;;;1.83;;
61413;SDS011;47279;52.426;10.488;2023-09-30T07:53:17;2.53;;;1.60;;
61413;SDS011;47279;52.426;10.488;2023-09-30T07:55:43;2.45;;;1.77;;
61413;SDS011;47279;52.426;10.488;2023-09-30T07:58:09;2.00;;;1.67;;
61413;SDS011;47279;52.426;10.488;2023-09-30T08:00:35;2.05;;;1.40;;
61413;SDS011;47279;52.426;10.488;2023-09-30T08:03:01;3.33;;;2.00;;
61413;SDS011;47279;52.426;10.488;2023-09-30T08:05:27;3.72;;;2.10;;
61413;SDS011;47279;52.426;10.488;2023-09-30T08:07:53;2.28;;;1.70;;
61413;SDS011;47279;52.426;10.488;2023-09-30T08:10:19;2.65;;;1.75;;
61413;SDS011;47279;52.426;10.488;2023-09-30T08:12:45;3.05;;;1.75;;
61413;SDS011;47279;52.426;10.488;2023-09-30T08:15:13;2.83;;;1.70;;
61413;SDS011;47279;52.426;10.488;2023-09-30T08:17:39;3.45;;;1.70;;
61413;SDS011;47279;52.426;10.488;2023-09-30T08:20:07;2.60;;;1.70;;
61413;SDS011;47279;52.426;10.488;2023-09-30T08:22:34;2.50;;;1.83;;
61413;SDS011;47279;52.426;10.488;2023-09-30T08:25:00;2.50;;;1.70;;
61413;SDS011;47279;52.426;10.488;2023-09-30T08:27:26;2.25;;;1.70;;
61413;SDS011;47279;52.426;10.488;2023-09-30T08:29:52;2.63;;;1.70;;
61413;SDS011;47279;52.426;10.488;2023-09-30T08:32:18;2.22;;;1.67;;
61413;SDS011;47279;52.426;10.488;2023-09-30T08:34:44;2.80;;;1.80;;
61413;SDS011;47279;52.426;10.488;2023-09-30T08:37:10;2.72;;;1.80;;
61413;SDS011;47279;52.426;10.488;2023-09-30T08:39:39;3.30;;;1.60;;
61413;SDS011;47279;52.426;10.488;2023-09-30T08:42:07;3.07;;;1.67;;
61413;SDS011;47279;52.426;10.488;2023-09-30T08:44:35;2.63;;;1.60;;
61413;SDS011;47279;52.426;10.488;2023-09-30T08:47:02;3.47;;;1.70;;
61413;SDS011;47279;52.426;10.488;2023-09-30T08:49:28;3.00;;;1.60;;
61413;SDS011;47279;52.426;10.488;2023-09-30T08:51:54;2.25;;;1.35;;
61413;SDS011;47279;52.426;10.488;2023-09-30T08:54:21;2.25;;;1.67;;
61413;SDS011;47279;52.426;10.488;2023-09-30T08:56:47;2.80;;;1.55;;
61413;SDS011;47279;52.426;10.488;2023-09-30T08:59:14;2.63;;;1.45;;
61413;SDS011;47279;52.426;10.488;2023-09-30T09:01:41;2.58;;;1.65;;
61413;SDS011;47279;52.426;10.488;2023-09-30T09:04:07;2.47;;;1.73;;
61413;SDS011;47279;52.426;10.488;2023-09-30T09:06:33;2.22;;;1.55;;
61413;SDS011;47279;52.426;10.488;2023-09-30T09:09:17;3.10;;;1.63;;
61413;SDS011;47279;52.426;10.488;2023-09-30T09:11:44;3.67;;;1.77;;
61413;SDS011;47279;52.426;10.488;2023-09-30T09:14:10;3.30;;;1.42;;
61413;SDS011;47279;52.426;10.488;2023-09-30T09:16:36;2.55;;;1.40;;
61413;SDS011;47279;52.426;10.488;2023-09-30T09:19:36;3.05;;;1.52;;
61413;SDS011;47279;52.426;10.488;2023-09-30T09:21:56;1.65;;;1.40;;
61413;SDS011;47279;52.426;10.488;2023-09-30T09:24:32;2.55;;;1.60;;
61413;SDS011;47279;52.426;10.488;2023-09-30T09:29:31;2.22;;;1.60;;
61413;SDS011;47279;52.426;10.488;2023-09-30T09:32:13;2.85;;;1.50;;
61413;SDS011;47279;52.426;10.488;2023-09-30T09:34:40;2.63;;;1.85;;
61413;SDS011;47279;52.426;10.488;2023-09-30T09:37:16;2.90;;;1.60;;
61413;SDS011;47279;52.426;10.488;2023-09-30T09:39:48;2.25;;;1.50;;
61413;SDS011;47279;52.426;10.488;2023-09-30T09:42:23;1.90;;;1.58;;
61413;SDS011;47279;52.426;10.488;2023-09-30T09:44:49;3.03;;;1.60;;
61413;SDS011;47279;52.426;10.488;2023-09-30T09:47:16;2.00;;;1.60;;
61413;SDS011;47279;52.426;10.488;2023-09-30T09:49:42;2.30;;;1.40;;
61413;SDS011;47279;52.426;10.488;2023-09-30T09:52:08;1.67;;;1.35;;
61413;SDS011;47279;52.426;10.488;2023-09-30T09:54:34;4.20;;;1.60;;
61413;SDS011;47279;52.426;10.488;2023-09-30T09:57:00;2.03;;;1.38;;
61413;SDS011;47279;52.426;10.488;2023-09-30T09:59:27;2.85;;;1.38;;
61413;SDS011;47279;52.426;10.488;2023-09-30T10:01:53;2.22;;;1.20;;
61413;SDS011;47279;52.426;10.488;2023-09-30T10:04:20;1.75;;;1.30;;
61413;SDS011;47279;52.426;10.488;2023-09-30T10:06:46;1.52;;;1.42;;
61413;SDS011;47279;52.426;10.488;2023-09-30T10:09:17;2.58;;;1.48;;
61413;SDS011;47279;52.426;10.488;2023-09-30T10:11:45;2.50;;;1.40;;
61413;SDS011;47279;52.426;10.488;2023-09-30T10:14:11;1.80;;;1.50;;
61413;SDS011;47279;52.426;10.488;2023-09-30T10:16:55;1.98;;;1.40;;
61413;SDS011;47279;52.426;10.488;2023-09-30T10:19:21;1.70;;;1.38;;
61413;SDS011;47279;52.426;10.488;2023-09-30T10:24:32;3.05;;;1.70;;
61413;SDS011;47279;52.426;10.488;2023-09-30T10:29:44;2.22;;;1.60;;
61413;SDS011;47279;52.426;10.488;2023-09-30T10:32:10;1.98;;;1.45;;
61413;SDS011;47279;52.426;10.488;2023-09-30T10:34:36;3.17;;;1.50;;
61413;SDS011;47279;52.426;10.488;2023-09-30T10:39:53;1.70;;;1.42;;
61413;SDS011;47279;52.426;10.488;2023-09-30T10:45:05;2.45;;;1.52;;
61413;SDS011;47279;52.426;10.488;2023-09-30T10:47:35;2.13;;;1.35;;
61413;SDS011;47279;52.426;10.488;2023-09-30T10:50:02;2.15;;;1.48;;
61413;SDS011;47279;52.426;10.488;2023-09-30T10:52:29;2.33;;;1.50;;
61413;SDS011;47279;52.426;10.488;2023-09-30T10:55:01;1.45;;;1.20;;
61413;SDS011;47279;52.426;10.488;2023-09-30T10:57:28;2.28;;;1.60;;
61413;SDS011;47279;52.426;10.488;2023-09-30T11:02:46;2.28;;;1.58;;
61413;SDS011;47279;52.426;10.488;2023-09-30T11:05:13;2.00;;;1.45;;
61413;SDS011;47279;52.426;10.488;2023-09-30T11:07:39;2.63;;;1.75;;
61413;SDS011;47279;52.426;10.488;2023-09-30T11:10:06;1.85;;;1.30;;
61413;SDS011;47279;52.426;10.488;2023-09-30T11:12:32;3.20;;;1.60;;
61413;SDS011;47279;52.426;10.488;2023-09-30T11:14:59;2.28;;;1.70;;
61413;SDS011;47279;52.426;10.488;2023-09-30T11:17:25;2.25;;;1.58;;
61413;SDS011;47279;52.426;10.488;2023-09-30T11:19:51;2.70;;;1.50;;
61413;SDS011;47279;52.426;10.488;2023-09-30T11:22:17;1.90;;;1.45;;
61413;SDS011;47279;52.426;10.488;2023-09-30T11:24:43;2.45;;;1.42;;
61413;SDS011;47279;52.426;10.488;2023-09-30T11:27:11;2.25;;;1.73;;
61413;SDS011;47279;52.426;10.488;2023-09-30T11:29:37;1.70;;;1.35;;
61413;SDS011;47279;52.426;10.488;2023-09-30T11:32:03;1.85;;;1.30;;
61413;SDS011;47279;52.426;10.488;2023-09-30T11:34:35;1.60;;;1.20;;
61413;SDS011;47279;52.426;10.488;2023-09-30T11:37:02;2.47;;;1.35;;
61413;SDS011;47279;52.426;10.488;2023-09-30T11:39:28;1.52;;;1.40;;
61413;SDS011;47279;52.426;10.488;2023-09-30T11:41:55;1.80;;;1.20;;
61413;SDS011;47279;52.426;10.488;2023-09-30T11:44:22;1.80;;;1.42;;
61413;SDS011;47279;52.426;10.488;2023-09-30T11:46:48;2.85;;;1.60;;
61413;SDS011;47279;52.426;10.488;2023-09-30T11:49:23;1.88;;;1.40;;
61413;SDS011;47279;52.426;10.488;2023-09-30T11:51:50;2.15;;;1.23;;
61413;SDS011;47279;52.426;10.488;2023-09-30T11:54:16;1.40;;;1.25;;
61413;SDS011;47279;52.426;10.488;2023-09-30T11:56:42;2.20;;;1.52;;
61413;SDS011;47279;52.426;10.488;2023-09-30T11:59:08;2.25;;;1.38;;
61413;SDS011;47279;52.426;10.488;2023-09-30T12:01:35;2.08;;;1.60;;
61413;SDS011;47279;52.426;10.488;2023-09-30T12:04:02;2.67;;;1.38;;
61413;SDS011;47279;52.426;10.488;2023-09-30T12:06:28;1.33;;;1.08;;
61413;SDS011;47279;52.426;10.488;2023-09-30T12:08:54;1.55;;;1.40;;
61413;SDS011;47279;52.426;10.488;2023-09-30T12:11:20;2.05;;;1.33;;
61413;SDS011;47279;52.426;10.488;2023-09-30T12:13:48;2.08;;;1.40;;
61413;SDS011;47279;52.426;10.488;2023-09-30T12:16:15;1.55;;;1.45;;
61413;SDS011;47279;52.426;10.488;2023-09-30T12:18:41;2.05;;;1.25;;
61413;SDS011;47279;52.426;10.488;2023-09-30T12:21:09;2.00;;;1.20;;
61413;SDS011;47279;52.426;10.488;2023-09-30T12:23:35;1.95;;;1.33;;
61413;SDS011;47279;52.426;10.488;2023-09-30T12:26:01;1.80;;;1.30;;
61413;SDS011;47279;52.426;10.488;2023-09-30T12:28:30;1.33;;;1.10;;
61413;SDS011;47279;52.426;10.488;2023-09-30T12:30:57;1.40;;;1.20;;
61413;SDS011;47279;52.426;10.488;2023-09-30T12:33:23;1.60;;;1.25;;
61413;SDS011;47279;52.426;10.488;2023-09-30T12:35:49;1.70;;;1.20;;
61413;SDS011;47279;52.426;10.488;2023-09-30T12:38:16;1.83;;;1.40;;
61413;SDS011;47279;52.426;10.488;2023-09-30T12:40:42;1.88;;;1.25;;
61413;SDS011;47279;52.426;10.488;2023-09-30T12:43:08;1.98;;;1.40;;
61413;SDS011;47279;52.426;10.488;2023-09-30T12:45:35;1.77;;;1.35;;
61413;SDS011;47279;52.426;10.488;2023-09-30T12:48:03;2.35;;;1.13;;
61413;SDS011;47279;52.426;10.488;2023-09-30T12:50:29;1.67;;;1.00;;
61413;SDS011;47279;52.426;10.488;2023-09-30T12:52:55;1.30;;;1.08;;
61413;SDS011;47279;52.426;10.488;2023-09-30T12:55:21;1.83;;;1.40;;
61413;SDS011;47279;52.426;10.488;2023-09-30T12:57:47;1.58;;;1.27;;
61413;SDS011;47279;52.426;10.488;2023-09-30T13:00:15;1.98;;;1.30;;
61413;SDS011;47279;52.426;10.488;2023-09-30T13:02:41;1.20;;;1.10;;
61413;SDS011;47279;52.426;10.488;2023-09-30T13:05:08;1.40;;;1.23;;
61413;SDS011;47279;52.426;10.488;2023-09-30T13:07:34;1.58;;;1.17;;
61413;SDS011;47279;52.426;10.488;2023-09-30T13:10:00;1.75;;;1.17;;
61413;SDS011;47279;52.426;10.488;2023-09-30T13:12:26;1.50;;;1.30;;
61413;SDS011;47279;52.426;10.488;2023-09-30T13:14:53;1.15;;;1.05;;
61413;SDS011;47279;52.426;10.488;2023-09-30T13:17:21;1.38;;;1.20;;
61413;SDS011;47279;52.426;10.488;2023-09-30T13:19:47;1.65;;;1.23;;
61413;SDS011;47279;52.426;10.488;2023-09-30T13:22:13;1.83;;;1.30;;
61413;SDS011;47279;52.426;10.488;2023-09-30T13:24:41;1.73;;;1.27;;
61413;SDS011;47279;52.426;10.488;2023-09-30T13:27:07;1.10;;;1.00;;
61413;SDS011;47279;52.426;10.488;2023-09-30T13:29:33;1.55;;;1.27;;
61413;SDS011;47279;52.426;10.488;2023-09-30T13:32:00;1.50;;;1.17;;
61413;SDS011;47279;52.426;10.488;2023-09-30T13:34:26;1.48;;;1.10;;
61413;SDS011;47279;52.426;10.488;2023-09-30T13:36:52;1.10;;;1.00;;
61413;SDS011;47279;52.426;10.488;2023-09-30T13:39:18;1.15;;;1.05;;
61413;SDS011;47279;52.426;10.488;2023-09-30T13:41:44;1.60;;;1.23;;
61413;SDS011;47279;52.426;10.488;2023-09-30T13:44:12;1.55;;;1.20;;
61413;SDS011;47279;52.426;10.488;2023-09-30T13:46:38;1.75;;;1.13;;
61413;SDS011;47279;52.426;10.488;2023-09-30T13:49:03;1.50;;;1.40;;
61413;SDS011;47279;52.426;10.488;2023-09-30T13:51:29;1.30;;;1.10;;
61413;SDS011;47279;52.426;10.488;2023-09-30T13:53:55;1.88;;;1.38;;
61413;SDS011;47279;52.426;10.488;2023-09-30T13:56:21;1.45;;;0.95;;
61413;SDS011;47279;52.426;10.488;2023-09-30T13:58:47;1.05;;;0.95;;
61413;SDS011;47279;52.426;10.488;2023-09-30T14:01:14;1.48;;;1.13;;
61413;SDS011;47279;52.426;10.488;2023-09-30T14:03:40;1.45;;;1.30;;
61413;SDS011;47279;52.426;10.488;2023-09-30T14:06:15;1.52;;;1.23;;
61413;SDS011;47279;52.426;10.488;2023-09-30T14:08:41;2.08;;;1.30;;
61413;SDS011;47279;52.426;10.488;2023-09-30T14:11:07;1.95;;;1.20;;
61413;SDS011;47279;52.426;10.488;2023-09-30T14:13:33;1.92;;;1.10;;
61413;SDS011;47279;52.426;10.488;2023-09-30T14:16:00;1.75;;;1.10;;
61413;SDS011;47279;52.426;10.488;2023-09-30T14:18:27;1.58;;;1.20;;
61413;SDS011;47279;52.426;10.488;2023-09-30T14:20:53;1.13;;;0.93;;
61413;SDS011;47279;52.426;10.488;2023-09-30T14:23:19;1.65;;;1.40;;
61413;SDS011;47279;52.426;10.488;2023-09-30T14:25:45;1.75;;;1.25;;
61413;SDS011;47279;52.426;10.488;2023-09-30T14:28:11;1.38;;;1.00;;
61413;SDS011;47279;52.426;10.488;2023-09-30T14:30:37;1.92;;;1.25;;
61413;SDS011;47279;52.426;10.488;2023-09-30T14:33:03;1.48;;;1.00;;
61413;SDS011;47279;52.426;10.488;2023-09-30T14:35:29;1.35;;;1.00;;
61413;SDS011;47279;52.426;10.488;2023-09-30T14:37:55;1.63;;;1.05;;
61413;SDS011;47279;52.426;10.488;2023-09-30T14:40:21;2.42;;;1.30;;
61413;SDS011;47279;52.426;10.488;2023-09-30T14:42:47;1.38;;;1.10;;
61413;SDS011;47279;52.426;10.488;2023-09-30T14:45:13;1.30;;;1.20;;
61413;SDS011;47279;52.426;10.488;2023-09-30T14:47:39;1.42;;;1.17;;
61413;SDS011;47279;52.426;10.488;2023-09-30T14:50:07;1.67;;;1.00;;